sensor_id;sensor_type;location;lat;lon;timestamp;P1;durP1;ratioP1;P2;durP2;ratioP2
21215;SDS011;10765;50.954;5.322;2023-05-10T00:00:41;20.50;;;18.30;;
21215;SDS011;10765;50.954;5.322;2023-05-10T00:03:08;20.53;;;17.33;;
21215;SDS011;10765;50.954;5.322;2023-05-10T00:05:35;19.60;;;17.50;;
21215;SDS011;10765;50.954;5.322;2023-05-10T00:08:03;20.00;;;17.03;;
21215;SDS011;10765;50.954;5.322;2023-05-10T00:10:30;18.60;;;15.90;;
21215;SDS011;10765;50.954;5.322;2023-05-10T00:12:57;18.93;;;16.47;;
21215;SDS011;10765;50.954;5.322;2023-05-10T00:15:24;18.47;;;16.30;;
21215;SDS011;10765;50.954;5.322;2023-05-10T00:17:51;17.97;;;16.07;;
21215;SDS011;10765;50.954;5.322;2023-05-10T00:20:17;20.07;;;16.60;;
21215;SDS011;10765;50.954;5.322;2023-05-10T00:22:44;18.73;;;16.60;;
21215;SDS011;10765;50.954;5.322;2023-05-10T00:25:12;18.37;;;16.37;;
21215;SDS011;10765;50.954;5.322;2023-05-10T00:27:39;17.60;;;15.20;;
21215;SDS011;10765;50.954;5.322;2023-05-10T00:30:07;18.83;;;16.70;;
21215;SDS011;10765;50.954;5.322;2023-05-10T00:32:34;18.00;;;16.00;;
21215;SDS011;10765;50.954;5.322;2023-05-10T00:35:01;19.27;;;15.27;;
21215;SDS011;10765;50.954;5.322;2023-05-10T00:37:28;17.90;;;15.23;;
21215;SDS011;10765;50.954;5.322;2023-05-10T00:39:55;18.33;;;16.37;;
21215;SDS011;10765;50.954;5.322;2023-05-10T00:42:23;17.33;;;15.50;;
21215;SDS011;10765;50.954;5.322;2023-05-10T00:44:50;19.43;;;16.50;;
21215;SDS011;10765;50.954;5.322;2023-05-10T00:47:17;18.53;;;15.20;;
21215;SDS011;10765;50.954;5.322;2023-05-10T00:49:44;17.90;;;16.00;;
21215;SDS011;10765;50.954;5.322;2023-05-10T00:52:11;17.97;;;15.47;;
21215;SDS011;10765;50.954;5.322;2023-05-10T00:54:39;17.63;;;15.83;;
21215;SDS011;10765;50.954;5.322;2023-05-10T00:57:06;19.73;;;17.63;;
21215;SDS011;10765;50.954;5.322;2023-05-10T00:59:34;19.27;;;17.27;;
21215;SDS011;10765;50.954;5.322;2023-05-10T01:02:01;18.13;;;16.30;;
21215;SDS011;10765;50.954;5.322;2023-05-10T01:04:28;19.53;;;17.43;;
21215;SDS011;10765;50.954;5.322;2023-05-10T01:06:55;18.57;;;16.17;;
21215;SDS011;10765;50.954;5.322;2023-05-10T01:09:22;19.07;;;17.13;;
21215;SDS011;10765;50.954;5.322;2023-05-10T01:11:51;17.90;;;16.03;;
21215;SDS011;10765;50.954;5.322;2023-05-10T01:14:18;19.57;;;16.10;;
21215;SDS011;10765;50.954;5.322;2023-05-10T01:16:48;18.40;;;16.00;;
21215;SDS011;10765;50.954;5.322;2023-05-10T01:19:17;21.63;;;16.33;;
21215;SDS011;10765;50.954;5.322;2023-05-10T01:21:49;18.73;;;16.73;;
21215;SDS011;10765;50.954;5.322;2023-05-10T01:24:38;20.33;;;16.27;;
21215;SDS011;10765;50.954;5.322;2023-05-10T01:27:26;17.87;;;15.97;;
21215;SDS011;10765;50.954;5.322;2023-05-10T01:30:19;18.07;;;14.97;;
21215;SDS011;10765;50.954;5.322;2023-05-10T01:33:02;18.53;;;15.93;;
21215;SDS011;10765;50.954;5.322;2023-05-10T01:35:37;18.67;;;16.70;;
21215;SDS011;10765;50.954;5.322;2023-05-10T01:38:09;19.37;;;16.37;;
21215;SDS011;10765;50.954;5.322;2023-05-10T01:40:46;19.87;;;15.30;;
21215;SDS011;10765;50.954;5.322;2023-05-10T01:43:19;21.23;;;16.80;;
21215;SDS011;10765;50.954;5.322;2023-05-10T01:45:55;21.40;;;16.67;;
21215;SDS011;10765;50.954;5.322;2023-05-10T01:48:30;20.17;;;16.00;;
21215;SDS011;10765;50.954;5.322;2023-05-10T01:50:59;18.60;;;15.47;;
21215;SDS011;10765;50.954;5.322;2023-05-10T01:53:26;24.43;;;16.70;;
21215;SDS011;10765;50.954;5.322;2023-05-10T01:55:54;22.57;;;16.50;;
21215;SDS011;10765;50.954;5.322;2023-05-10T01:58:22;23.70;;;16.53;;
21215;SDS011;10765;50.954;5.322;2023-05-10T02:00:51;24.10;;;15.50;;
21215;SDS011;10765;50.954;5.322;2023-05-10T02:03:20;19.07;;;16.13;;
21215;SDS011;10765;50.954;5.322;2023-05-10T02:05:50;21.87;;;17.23;;
21215;SDS011;10765;50.954;5.322;2023-05-10T02:08:19;25.23;;;17.93;;
21215;SDS011;10765;50.954;5.322;2023-05-10T02:10:49;19.20;;;16.00;;
21215;SDS011;10765;50.954;5.322;2023-05-10T02:13:18;23.63;;;16.33;;
21215;SDS011;10765;50.954;5.322;2023-05-10T02:15:46;23.23;;;17.77;;
21215;SDS011;10765;50.954;5.322;2023-05-10T02:18:14;22.13;;;17.17;;
21215;SDS011;10765;50.954;5.322;2023-05-10T02:20:43;24.90;;;17.37;;
21215;SDS011;10765;50.954;5.322;2023-05-10T02:23:12;23.10;;;17.37;;
21215;SDS011;10765;50.954;5.322;2023-05-10T02:25:40;21.60;;;17.60;;
21215;SDS011;10765;50.954;5.322;2023-05-10T02:28:09;23.83;;;17.53;;
21215;SDS011;10765;50.954;5.322;2023-05-10T02:30:38;24.63;;;17.67;;
21215;SDS011;10765;50.954;5.322;2023-05-10T02:33:05;22.77;;;17.03;;
21215;SDS011;10765;50.954;5.322;2023-05-10T02:35:33;24.40;;;17.63;;
21215;SDS011;10765;50.954;5.322;2023-05-10T02:38:01;24.33;;;18.97;;
21215;SDS011;10765;50.954;5.322;2023-05-10T02:40:30;24.97;;;18.80;;
21215;SDS011;10765;50.954;5.322;2023-05-10T02:42:58;25.63;;;18.13;;
21215;SDS011;10765;50.954;5.322;2023-05-10T02:45:29;21.97;;;16.93;;
21215;SDS011;10765;50.954;5.322;2023-05-10T02:47:57;24.40;;;18.70;;
21215;SDS011;10765;50.954;5.322;2023-05-10T02:50:25;20.87;;;17.33;;
21215;SDS011;10765;50.954;5.322;2023-05-10T02:52:59;29.77;;;18.07;;
21215;SDS011;10765;50.954;5.322;2023-05-10T02:55:31;24.67;;;17.40;;
21215;SDS011;10765;50.954;5.322;2023-05-10T02:58:03;25.10;;;18.13;;
21215;SDS011;10765;50.954;5.322;2023-05-10T03:00:30;24.73;;;18.00;;
21215;SDS011;10765;50.954;5.322;2023-05-10T03:02:57;21.67;;;16.50;;
21215;SDS011;10765;50.954;5.322;2023-05-10T03:05:25;22.60;;;17.40;;
21215;SDS011;10765;50.954;5.322;2023-05-10T03:07:52;21.60;;;17.33;;
21215;SDS011;10765;50.954;5.322;2023-05-10T03:10:19;25.67;;;18.40;;
21215;SDS011;10765;50.954;5.322;2023-05-10T03:12:57;22.73;;;16.70;;
21215;SDS011;10765;50.954;5.322;2023-05-10T03:15:34;23.97;;;17.57;;
21215;SDS011;10765;50.954;5.322;2023-05-10T03:18:10;23.60;;;17.50;;
21215;SDS011;10765;50.954;5.322;2023-05-10T03:20:42;21.80;;;16.60;;
21215;SDS011;10765;50.954;5.322;2023-05-10T03:23:16;22.80;;;17.57;;
21215;SDS011;10765;50.954;5.322;2023-05-10T03:25:49;24.60;;;17.17;;
21215;SDS011;10765;50.954;5.322;2023-05-10T03:28:18;22.33;;;17.87;;
21215;SDS011;10765;50.954;5.322;2023-05-10T03:30:46;21.27;;;16.83;;
21215;SDS011;10765;50.954;5.322;2023-05-10T03:33:13;21.87;;;15.70;;
21215;SDS011;10765;50.954;5.322;2023-05-10T03:35:40;21.77;;;17.67;;
21215;SDS011;10765;50.954;5.322;2023-05-10T03:38:09;19.83;;;16.23;;
21215;SDS011;10765;50.954;5.322;2023-05-10T03:40:36;24.17;;;17.63;;
21215;SDS011;10765;50.954;5.322;2023-05-10T03:43:03;21.03;;;17.37;;
21215;SDS011;10765;50.954;5.322;2023-05-10T03:45:31;20.63;;;17.37;;
21215;SDS011;10765;50.954;5.322;2023-05-10T03:47:58;24.80;;;17.13;;
21215;SDS011;10765;50.954;5.322;2023-05-10T03:50:25;22.43;;;17.00;;
21215;SDS011;10765;50.954;5.322;2023-05-10T03:52:52;23.30;;;17.27;;
21215;SDS011;10765;50.954;5.322;2023-05-10T03:55:19;24.83;;;18.27;;
21215;SDS011;10765;50.954;5.322;2023-05-10T03:57:47;22.67;;;17.50;;
21215;SDS011;10765;50.954;5.322;2023-05-10T04:00:14;24.13;;;16.87;;
21215;SDS011;10765;50.954;5.322;2023-05-10T04:02:43;23.80;;;18.40;;
21215;SDS011;10765;50.954;5.322;2023-05-10T04:05:10;28.53;;;18.80;;
21215;SDS011;10765;50.954;5.322;2023-05-10T04:07:37;27.60;;;18.23;;
21215;SDS011;10765;50.954;5.322;2023-05-10T04:10:04;26.50;;;19.77;;
21215;SDS011;10765;50.954;5.322;2023-05-10T04:12:32;26.37;;;19.50;;
21215;SDS011;10765;50.954;5.322;2023-05-10T04:14:59;27.57;;;18.70;;
21215;SDS011;10765;50.954;5.322;2023-05-10T04:17:26;26.83;;;19.70;;
21215;SDS011;10765;50.954;5.322;2023-05-10T04:19:54;25.13;;;19.20;;
21215;SDS011;10765;50.954;5.322;2023-05-10T04:22:22;26.90;;;20.07;;
21215;SDS011;10765;50.954;5.322;2023-05-10T04:24:49;27.07;;;19.27;;
21215;SDS011;10765;50.954;5.322;2023-05-10T04:27:16;28.27;;;20.03;;
21215;SDS011;10765;50.954;5.322;2023-05-10T04:29:43;29.17;;;20.63;;
21215;SDS011;10765;50.954;5.322;2023-05-10T04:32:09;32.23;;;21.63;;
21215;SDS011;10765;50.954;5.322;2023-05-10T04:34:36;34.73;;;24.07;;
21215;SDS011;10765;50.954;5.322;2023-05-10T04:37:05;31.27;;;23.43;;
21215;SDS011;10765;50.954;5.322;2023-05-10T04:39:32;34.37;;;22.40;;
21215;SDS011;10765;50.954;5.322;2023-05-10T04:42:00;38.23;;;25.03;;
21215;SDS011;10765;50.954;5.322;2023-05-10T04:44:27;32.73;;;24.57;;
21215;SDS011;10765;50.954;5.322;2023-05-10T04:46:54;34.37;;;25.40;;
21215;SDS011;10765;50.954;5.322;2023-05-10T04:49:21;36.33;;;25.23;;
21215;SDS011;10765;50.954;5.322;2023-05-10T04:51:48;35.00;;;24.77;;
21215;SDS011;10765;50.954;5.322;2023-05-10T04:54:16;39.50;;;27.17;;
21215;SDS011;10765;50.954;5.322;2023-05-10T04:56:43;43.40;;;27.07;;
21215;SDS011;10765;50.954;5.322;2023-05-10T04:59:10;37.23;;;25.90;;
21215;SDS011;10765;50.954;5.322;2023-05-10T05:01:37;40.93;;;27.97;;
21215;SDS011;10765;50.954;5.322;2023-05-10T05:04:04;43.20;;;28.77;;
21215;SDS011;10765;50.954;5.322;2023-05-10T05:06:31;48.50;;;29.43;;
21215;SDS011;10765;50.954;5.322;2023-05-10T05:08:58;46.00;;;28.80;;
21215;SDS011;10765;50.954;5.322;2023-05-10T05:11:27;46.93;;;29.63;;
21215;SDS011;10765;50.954;5.322;2023-05-10T05:13:53;45.87;;;29.87;;
21215;SDS011;10765;50.954;5.322;2023-05-10T05:16:20;49.87;;;29.97;;
21215;SDS011;10765;50.954;5.322;2023-05-10T05:18:47;45.50;;;29.43;;
21215;SDS011;10765;50.954;5.322;2023-05-10T05:21:14;43.77;;;27.77;;
21215;SDS011;10765;50.954;5.322;2023-05-10T05:23:42;50.90;;;29.23;;
21215;SDS011;10765;50.954;5.322;2023-05-10T05:26:09;43.23;;;28.43;;
21215;SDS011;10765;50.954;5.322;2023-05-10T05:28:37;47.37;;;30.77;;
21215;SDS011;10765;50.954;5.322;2023-05-10T05:31:04;48.27;;;30.57;;
21215;SDS011;10765;50.954;5.322;2023-05-10T05:33:32;46.90;;;29.97;;
21215;SDS011;10765;50.954;5.322;2023-05-10T05:36:00;50.97;;;32.33;;
21215;SDS011;10765;50.954;5.322;2023-05-10T05:38:27;51.60;;;31.80;;
21215;SDS011;10765;50.954;5.322;2023-05-10T05:40:54;59.60;;;33.87;;
21215;SDS011;10765;50.954;5.322;2023-05-10T05:43:21;56.17;;;34.33;;
21215;SDS011;10765;50.954;5.322;2023-05-10T05:45:49;60.93;;;36.37;;
21215;SDS011;10765;50.954;5.322;2023-05-10T05:48:17;62.50;;;35.80;;
21215;SDS011;10765;50.954;5.322;2023-05-10T05:50:45;61.57;;;35.40;;
21215;SDS011;10765;50.954;5.322;2023-05-10T05:53:12;65.33;;;37.73;;
21215;SDS011;10765;50.954;5.322;2023-05-10T05:55:38;61.20;;;36.67;;
21215;SDS011;10765;50.954;5.322;2023-05-10T05:58:05;58.03;;;34.03;;
21215;SDS011;10765;50.954;5.322;2023-05-10T06:00:32;56.73;;;34.27;;
21215;SDS011;10765;50.954;5.322;2023-05-10T06:03:01;56.00;;;34.63;;
21215;SDS011;10765;50.954;5.322;2023-05-10T06:05:28;56.77;;;33.47;;
21215;SDS011;10765;50.954;5.322;2023-05-10T06:07:55;54.30;;;35.57;;
21215;SDS011;10765;50.954;5.322;2023-05-10T06:10:22;49.17;;;31.20;;
21215;SDS011;10765;50.954;5.322;2023-05-10T06:12:50;50.27;;;34.00;;
21215;SDS011;10765;50.954;5.322;2023-05-10T06:15:17;48.37;;;31.27;;
21215;SDS011;10765;50.954;5.322;2023-05-10T06:17:44;47.13;;;30.07;;
21215;SDS011;10765;50.954;5.322;2023-05-10T06:20:15;49.67;;;31.67;;
21215;SDS011;10765;50.954;5.322;2023-05-10T06:22:42;48.17;;;31.37;;
21215;SDS011;10765;50.954;5.322;2023-05-10T06:25:09;50.93;;;32.97;;
21215;SDS011;10765;50.954;5.322;2023-05-10T06:27:36;49.17;;;31.40;;
21215;SDS011;10765;50.954;5.322;2023-05-10T06:30:04;47.83;;;32.33;;
21215;SDS011;10765;50.954;5.322;2023-05-10T06:32:33;53.70;;;31.77;;
21215;SDS011;10765;50.954;5.322;2023-05-10T06:35:00;50.30;;;32.60;;
21215;SDS011;10765;50.954;5.322;2023-05-10T06:37:28;53.97;;;32.97;;
21215;SDS011;10765;50.954;5.322;2023-05-10T06:39:55;56.03;;;33.53;;
21215;SDS011;10765;50.954;5.322;2023-05-10T06:42:22;51.43;;;32.43;;
21215;SDS011;10765;50.954;5.322;2023-05-10T06:44:50;53.33;;;32.97;;
21215;SDS011;10765;50.954;5.322;2023-05-10T06:47:17;53.20;;;33.00;;
21215;SDS011;10765;50.954;5.322;2023-05-10T06:49:44;48.67;;;30.83;;
21215;SDS011;10765;50.954;5.322;2023-05-10T06:52:11;51.10;;;32.27;;
21215;SDS011;10765;50.954;5.322;2023-05-10T06:54:39;49.77;;;30.87;;
21215;SDS011;10765;50.954;5.322;2023-05-10T06:57:06;50.47;;;32.37;;
21215;SDS011;10765;50.954;5.322;2023-05-10T06:59:33;49.47;;;30.60;;
21215;SDS011;10765;50.954;5.322;2023-05-10T07:02:00;47.70;;;31.30;;
21215;SDS011;10765;50.954;5.322;2023-05-10T07:04:27;50.40;;;31.83;;
21215;SDS011;10765;50.954;5.322;2023-05-10T07:06:54;52.10;;;31.30;;
21215;SDS011;10765;50.954;5.322;2023-05-10T07:09:20;50.37;;;31.90;;
21215;SDS011;10765;50.954;5.322;2023-05-10T07:11:50;51.07;;;32.27;;
21215;SDS011;10765;50.954;5.322;2023-05-10T07:14:17;52.30;;;31.37;;
21215;SDS011;10765;50.954;5.322;2023-05-10T07:16:44;49.07;;;32.40;;
21215;SDS011;10765;50.954;5.322;2023-05-10T07:19:12;49.70;;;31.87;;
21215;SDS011;10765;50.954;5.322;2023-05-10T07:21:39;50.30;;;30.90;;
21215;SDS011;10765;50.954;5.322;2023-05-10T07:24:08;55.30;;;32.37;;
21215;SDS011;10765;50.954;5.322;2023-05-10T07:26:35;53.17;;;32.17;;
21215;SDS011;10765;50.954;5.322;2023-05-10T07:29:03;49.83;;;30.43;;
21215;SDS011;10765;50.954;5.322;2023-05-10T07:31:30;47.13;;;30.03;;
21215;SDS011;10765;50.954;5.322;2023-05-10T07:33:57;45.73;;;30.53;;
21215;SDS011;10765;50.954;5.322;2023-05-10T07:36:24;46.10;;;30.57;;
21215;SDS011;10765;50.954;5.322;2023-05-10T07:38:51;49.23;;;30.87;;
21215;SDS011;10765;50.954;5.322;2023-05-10T07:41:18;42.30;;;29.07;;
21215;SDS011;10765;50.954;5.322;2023-05-10T07:43:45;45.50;;;28.70;;
21215;SDS011;10765;50.954;5.322;2023-05-10T07:46:14;43.57;;;29.60;;
21215;SDS011;10765;50.954;5.322;2023-05-10T07:48:41;45.40;;;29.57;;
21215;SDS011;10765;50.954;5.322;2023-05-10T07:51:08;41.03;;;28.27;;
21215;SDS011;10765;50.954;5.322;2023-05-10T07:53:35;42.67;;;28.40;;
21215;SDS011;10765;50.954;5.322;2023-05-10T07:58:50;38.63;;;27.50;;
21215;SDS011;10765;50.954;5.322;2023-05-10T08:01:18;33.30;;;25.97;;
21215;SDS011;10765;50.954;5.322;2023-05-10T08:03:45;35.67;;;25.57;;
21215;SDS011;10765;50.954;5.322;2023-05-10T08:06:12;32.33;;;24.33;;
21215;SDS011;10765;50.954;5.322;2023-05-10T08:08:40;31.83;;;24.77;;
21215;SDS011;10765;50.954;5.322;2023-05-10T08:11:07;31.47;;;24.43;;
21215;SDS011;10765;50.954;5.322;2023-05-10T08:13:34;30.33;;;24.40;;
21215;SDS011;10765;50.954;5.322;2023-05-10T08:16:01;34.77;;;25.03;;
21215;SDS011;10765;50.954;5.322;2023-05-10T08:18:30;32.17;;;23.10;;
21215;SDS011;10765;50.954;5.322;2023-05-10T08:20:56;26.07;;;20.67;;
21215;SDS011;10765;50.954;5.322;2023-05-10T08:23:23;23.57;;;17.67;;
21215;SDS011;10765;50.954;5.322;2023-05-10T08:25:51;12.47;;;9.77;;
21215;SDS011;10765;50.954;5.322;2023-05-10T08:28:17;9.93;;;7.80;;
21215;SDS011;10765;50.954;5.322;2023-05-10T08:30:45;8.33;;;6.33;;
21215;SDS011;10765;50.954;5.322;2023-05-10T08:33:11;5.20;;;4.50;;
21215;SDS011;10765;50.954;5.322;2023-05-10T08:35:40;4.37;;;3.97;;
21215;SDS011;10765;50.954;5.322;2023-05-10T08:38:07;4.70;;;4.17;;
21215;SDS011;10765;50.954;5.322;2023-05-10T08:40:34;6.23;;;4.10;;
21215;SDS011;10765;50.954;5.322;2023-05-10T08:43:03;4.63;;;4.23;;
21215;SDS011;10765;50.954;5.322;2023-05-10T08:45:32;4.73;;;4.33;;
21215;SDS011;10765;50.954;5.322;2023-05-10T08:48:03;5.03;;;4.33;;
21215;SDS011;10765;50.954;5.322;2023-05-10T08:50:31;12.80;;;6.87;;
21215;SDS011;10765;50.954;5.322;2023-05-10T08:53:01;5.90;;;4.83;;
21215;SDS011;10765;50.954;5.322;2023-05-10T08:55:32;5.03;;;4.53;;
21215;SDS011;10765;50.954;5.322;2023-05-10T08:57:59;8.10;;;5.87;;
21215;SDS011;10765;50.954;5.322;2023-05-10T09:00:26;7.83;;;5.50;;
21215;SDS011;10765;50.954;5.322;2023-05-10T09:02:54;6.60;;;5.70;;
21215;SDS011;10765;50.954;5.322;2023-05-10T09:05:22;8.23;;;5.93;;
21215;SDS011;10765;50.954;5.322;2023-05-10T09:07:49;5.80;;;5.27;;
21215;SDS011;10765;50.954;5.322;2023-05-10T09:10:17;6.60;;;5.20;;
21215;SDS011;10765;50.954;5.322;2023-05-10T09:12:44;6.47;;;5.73;;
21215;SDS011;10765;50.954;5.322;2023-05-10T09:15:13;6.53;;;5.93;;
21215;SDS011;10765;50.954;5.322;2023-05-10T09:17:44;6.70;;;5.63;;
21215;SDS011;10765;50.954;5.322;2023-05-10T09:20:11;5.80;;;5.30;;
21215;SDS011;10765;50.954;5.322;2023-05-10T09:22:38;6.07;;;5.47;;
21215;SDS011;10765;50.954;5.322;2023-05-10T09:25:06;7.13;;;6.20;;
21215;SDS011;10765;50.954;5.322;2023-05-10T09:27:36;6.27;;;5.67;;
21215;SDS011;10765;50.954;5.322;2023-05-10T09:30:04;5.90;;;5.30;;
21215;SDS011;10765;50.954;5.322;2023-05-10T09:32:36;7.13;;;6.40;;
21215;SDS011;10765;50.954;5.322;2023-05-10T09:35:10;6.93;;;6.00;;
21215;SDS011;10765;50.954;5.322;2023-05-10T09:37:38;7.93;;;6.60;;
21215;SDS011;10765;50.954;5.322;2023-05-10T09:40:07;7.47;;;6.53;;
21215;SDS011;10765;50.954;5.322;2023-05-10T09:42:39;7.93;;;7.13;;
21215;SDS011;10765;50.954;5.322;2023-05-10T09:45:08;8.73;;;7.10;;
21215;SDS011;10765;50.954;5.322;2023-05-10T09:47:35;7.70;;;6.97;;
21215;SDS011;10765;50.954;5.322;2023-05-10T09:50:03;8.97;;;7.73;;
21215;SDS011;10765;50.954;5.322;2023-05-10T09:52:30;7.73;;;6.93;;
21215;SDS011;10765;50.954;5.322;2023-05-10T09:55:11;9.60;;;8.37;;
21215;SDS011;10765;50.954;5.322;2023-05-10T09:57:39;8.97;;;7.97;;
21215;SDS011;10765;50.954;5.322;2023-05-10T10:00:07;9.57;;;8.17;;
21215;SDS011;10765;50.954;5.322;2023-05-10T10:02:35;9.43;;;8.40;;
21215;SDS011;10765;50.954;5.322;2023-05-10T10:05:02;10.30;;;8.43;;
21215;SDS011;10765;50.954;5.322;2023-05-10T10:07:29;10.53;;;9.13;;
21215;SDS011;10765;50.954;5.322;2023-05-10T10:09:57;10.03;;;9.03;;
21215;SDS011;10765;50.954;5.322;2023-05-10T10:12:25;11.60;;;9.70;;
21215;SDS011;10765;50.954;5.322;2023-05-10T10:14:54;11.20;;;9.63;;
21215;SDS011;10765;50.954;5.322;2023-05-10T10:17:22;10.80;;;9.77;;
21215;SDS011;10765;50.954;5.322;2023-05-10T10:19:53;10.53;;;9.23;;
21215;SDS011;10765;50.954;5.322;2023-05-10T10:22:21;12.13;;;10.40;;
21215;SDS011;10765;50.954;5.322;2023-05-10T10:24:48;12.10;;;10.37;;
21215;SDS011;10765;50.954;5.322;2023-05-10T10:27:19;11.70;;;10.53;;
21215;SDS011;10765;50.954;5.322;2023-05-10T10:29:59;11.67;;;10.50;;
21215;SDS011;10765;50.954;5.322;2023-05-10T10:32:35;10.83;;;9.73;;
21215;SDS011;10765;50.954;5.322;2023-05-10T10:35:19;10.70;;;9.60;;
21215;SDS011;10765;50.954;5.322;2023-05-10T10:37:47;11.27;;;10.17;;
21215;SDS011;10765;50.954;5.322;2023-05-10T10:40:24;10.73;;;9.60;;
21215;SDS011;10765;50.954;5.322;2023-05-10T10:42:52;10.27;;;9.37;;
21215;SDS011;10765;50.954;5.322;2023-05-10T10:45:21;11.80;;;10.20;;
21215;SDS011;10765;50.954;5.322;2023-05-10T10:47:50;10.53;;;9.53;;
21215;SDS011;10765;50.954;5.322;2023-05-10T10:50:44;9.60;;;8.60;;
21215;SDS011;10765;50.954;5.322;2023-05-10T10:53:11;9.97;;;8.97;;
21215;SDS011;10765;50.954;5.322;2023-05-10T10:55:44;9.43;;;8.50;;
21215;SDS011;10765;50.954;5.322;2023-05-10T10:58:12;9.30;;;8.30;;
21215;SDS011;10765;50.954;5.322;2023-05-10T11:01:09;8.97;;;8.07;;
21215;SDS011;10765;50.954;5.322;2023-05-10T11:03:40;8.87;;;7.97;;
21215;SDS011;10765;50.954;5.322;2023-05-10T11:06:28;8.77;;;7.93;;
21215;SDS011;10765;50.954;5.322;2023-05-10T11:08:56;8.83;;;8.00;;
21215;SDS011;10765;50.954;5.322;2023-05-10T11:11:23;9.80;;;8.43;;
21215;SDS011;10765;50.954;5.322;2023-05-10T11:13:50;8.60;;;7.80;;
21215;SDS011;10765;50.954;5.322;2023-05-10T11:16:19;8.50;;;7.60;;
21215;SDS011;10765;50.954;5.322;2023-05-10T11:18:56;8.30;;;7.50;;
21215;SDS011;10765;50.954;5.322;2023-05-10T11:21:26;7.97;;;6.63;;
21215;SDS011;10765;50.954;5.322;2023-05-10T11:23:54;6.87;;;6.27;;
21215;SDS011;10765;50.954;5.322;2023-05-10T11:26:22;7.27;;;6.53;;
21215;SDS011;10765;50.954;5.322;2023-05-10T11:28:51;7.37;;;6.77;;
21215;SDS011;10765;50.954;5.322;2023-05-10T11:31:22;6.90;;;6.20;;
21215;SDS011;10765;50.954;5.322;2023-05-10T11:33:52;6.63;;;6.03;;
21215;SDS011;10765;50.954;5.322;2023-05-10T11:36:21;6.50;;;5.90;;
21215;SDS011;10765;50.954;5.322;2023-05-10T11:38:50;6.83;;;6.23;;
21215;SDS011;10765;50.954;5.322;2023-05-10T11:41:17;5.87;;;5.27;;
21215;SDS011;10765;50.954;5.322;2023-05-10T11:43:47;5.77;;;5.27;;
21215;SDS011;10765;50.954;5.322;2023-05-10T11:46:17;6.33;;;5.53;;
21215;SDS011;10765;50.954;5.322;2023-05-10T11:48:47;5.57;;;5.07;;
21215;SDS011;10765;50.954;5.322;2023-05-10T11:51:19;6.13;;;5.50;;
21215;SDS011;10765;50.954;5.322;2023-05-10T11:53:47;6.37;;;5.77;;
21215;SDS011;10765;50.954;5.322;2023-05-10T11:56:15;6.03;;;5.43;;
21215;SDS011;10765;50.954;5.322;2023-05-10T11:58:42;6.23;;;5.67;;
21215;SDS011;10765;50.954;5.322;2023-05-10T12:01:09;6.40;;;5.80;;
21215;SDS011;10765;50.954;5.322;2023-05-10T12:03:39;5.67;;;5.17;;
21215;SDS011;10765;50.954;5.322;2023-05-10T12:06:08;6.67;;;5.47;;
21215;SDS011;10765;50.954;5.322;2023-05-10T12:08:35;5.27;;;4.80;;
21215;SDS011;10765;50.954;5.322;2023-05-10T12:11:05;5.03;;;4.53;;
21215;SDS011;10765;50.954;5.322;2023-05-10T12:13:36;5.00;;;4.53;;
21215;SDS011;10765;50.954;5.322;2023-05-10T12:16:12;4.73;;;4.33;;
21215;SDS011;10765;50.954;5.322;2023-05-10T12:18:40;4.50;;;4.10;;
21215;SDS011;10765;50.954;5.322;2023-05-10T12:21:08;4.60;;;4.10;;
21215;SDS011;10765;50.954;5.322;2023-05-10T12:23:36;6.07;;;4.00;;
21215;SDS011;10765;50.954;5.322;2023-05-10T12:26:04;3.77;;;3.47;;
21215;SDS011;10765;50.954;5.322;2023-05-10T12:28:31;4.40;;;4.00;;
21215;SDS011;10765;50.954;5.322;2023-05-10T12:30:58;4.30;;;3.90;;
21215;SDS011;10765;50.954;5.322;2023-05-10T12:33:25;3.70;;;3.33;;
21215;SDS011;10765;50.954;5.322;2023-05-10T12:35:53;3.27;;;2.97;;
21215;SDS011;10765;50.954;5.322;2023-05-10T12:38:26;3.30;;;3.00;;
21215;SDS011;10765;50.954;5.322;2023-05-10T12:40:55;3.60;;;3.30;;
21215;SDS011;10765;50.954;5.322;2023-05-10T12:43:23;3.90;;;3.60;;
21215;SDS011;10765;50.954;5.322;2023-05-10T12:45:51;3.97;;;3.57;;
21215;SDS011;10765;50.954;5.322;2023-05-10T12:48:18;4.50;;;3.93;;
21215;SDS011;10765;50.954;5.322;2023-05-10T12:50:46;4.00;;;3.70;;
21215;SDS011;10765;50.954;5.322;2023-05-10T12:53:13;3.80;;;3.50;;
21215;SDS011;10765;50.954;5.322;2023-05-10T12:55:42;4.80;;;4.00;;
21215;SDS011;10765;50.954;5.322;2023-05-10T12:58:09;3.93;;;3.63;;
21215;SDS011;10765;50.954;5.322;2023-05-10T13:00:37;3.57;;;3.27;;
21215;SDS011;10765;50.954;5.322;2023-05-10T13:03:03;4.37;;;4.00;;
21215;SDS011;10765;50.954;5.322;2023-05-10T13:05:31;3.43;;;3.23;;
21215;SDS011;10765;50.954;5.322;2023-05-10T13:07:58;3.50;;;3.20;;
21215;SDS011;10765;50.954;5.322;2023-05-10T13:10:25;2.80;;;2.60;;
21215;SDS011;10765;50.954;5.322;2023-05-10T13:12:53;2.10;;;2.00;;
21215;SDS011;10765;50.954;5.322;2023-05-10T13:15:20;2.47;;;2.27;;
21215;SDS011;10765;50.954;5.322;2023-05-10T13:17:47;2.57;;;2.37;;
21215;SDS011;10765;50.954;5.322;2023-05-10T13:20:14;1.90;;;1.80;;
21215;SDS011;10765;50.954;5.322;2023-05-10T13:22:42;2.50;;;2.00;;
21215;SDS011;10765;50.954;5.322;2023-05-10T13:25:09;1.90;;;1.70;;
21215;SDS011;10765;50.954;5.322;2023-05-10T13:27:36;2.03;;;1.93;;
21215;SDS011;10765;50.954;5.322;2023-05-10T13:30:06;1.80;;;1.70;;
21215;SDS011;10765;50.954;5.322;2023-05-10T13:32:33;2.13;;;1.93;;
21215;SDS011;10765;50.954;5.322;2023-05-10T13:35:01;1.60;;;1.50;;
21215;SDS011;10765;50.954;5.322;2023-05-10T13:37:29;2.20;;;1.90;;
21215;SDS011;10765;50.954;5.322;2023-05-10T13:39:56;1.90;;;1.80;;
21215;SDS011;10765;50.954;5.322;2023-05-10T13:42:23;1.80;;;1.70;;
21215;SDS011;10765;50.954;5.322;2023-05-10T13:44:50;1.63;;;1.53;;
21215;SDS011;10765;50.954;5.322;2023-05-10T13:47:18;1.70;;;1.50;;
21215;SDS011;10765;50.954;5.322;2023-05-10T13:49:46;1.47;;;1.37;;
21215;SDS011;10765;50.954;5.322;2023-05-10T13:52:13;2.20;;;1.67;;
21215;SDS011;10765;50.954;5.322;2023-05-10T13:54:40;1.70;;;1.50;;
21215;SDS011;10765;50.954;5.322;2023-05-10T13:57:07;1.30;;;1.20;;
21215;SDS011;10765;50.954;5.322;2023-05-10T13:59:34;1.97;;;1.30;;
21215;SDS011;10765;50.954;5.322;2023-05-10T14:02:01;2.43;;;1.17;;
21215;SDS011;10765;50.954;5.322;2023-05-10T14:04:30;1.10;;;1.03;;
21215;SDS011;10765;50.954;5.322;2023-05-10T14:06:57;1.40;;;1.30;;
21215;SDS011;10765;50.954;5.322;2023-05-10T14:09:23;1.87;;;1.30;;
21215;SDS011;10765;50.954;5.322;2023-05-10T14:11:50;0.97;;;0.97;;
21215;SDS011;10765;50.954;5.322;2023-05-10T14:14:17;1.30;;;1.20;;
21215;SDS011;10765;50.954;5.322;2023-05-10T14:16:44;1.50;;;1.40;;
21215;SDS011;10765;50.954;5.322;2023-05-10T14:19:12;2.20;;;1.63;;
21215;SDS011;10765;50.954;5.322;2023-05-10T14:21:40;3.37;;;1.73;;
21215;SDS011;10765;50.954;5.322;2023-05-10T14:24:08;2.00;;;1.90;;
21215;SDS011;10765;50.954;5.322;2023-05-10T14:26:35;3.80;;;2.13;;
21215;SDS011;10765;50.954;5.322;2023-05-10T14:29:02;2.57;;;2.33;;
21215;SDS011;10765;50.954;5.322;2023-05-10T14:31:29;2.23;;;2.10;;
21215;SDS011;10765;50.954;5.322;2023-05-10T14:33:56;2.93;;;2.70;;
21215;SDS011;10765;50.954;5.322;2023-05-10T14:36:24;2.47;;;2.30;;
21215;SDS011;10765;50.954;5.322;2023-05-10T14:38:52;2.53;;;2.33;;
21215;SDS011;10765;50.954;5.322;2023-05-10T14:41:19;4.00;;;2.87;;